sensor_id;sensor_type;location;lat;lon;timestamp;pressure;altitude;pressure_sealevel;temperature;humidity
6028;BME280;3042;43.194;27.646;2023-04-02T00:02:31;100172.78;;;15.85;100.00
6028;BME280;3042;43.194;27.646;2023-04-02T00:05:27;100404.16;;;17.32;100.00
6028;BME280;3042;43.194;27.646;2023-04-02T00:07:59;100407.63;;;17.28;100.00
6028;BME280;3042;43.194;27.646;2023-04-02T00:10:29;100422.81;;;16.91;100.00
6028;BME280;3042;43.194;27.646;2023-04-02T00:13:02;100338.81;;;16.54;100.00
6028;BME280;3042;43.194;27.646;2023-04-02T00:15:29;100422.69;;;16.82;100.00
6028;BME280;3042;43.194;27.646;2023-04-02T00:17:57;100258.28;;;16.12;100.00
6028;BME280;3042;43.194;27.646;2023-04-02T00:20:24;100410.03;;;17.13;100.00
6028;BME280;3042;43.194;27.646;2023-04-02T00:22:53;100407.44;;;17.13;100.00
6028;BME280;3042;43.194;27.646;2023-04-02T00:25:25;100403.25;;;17.30;100.00
6028;BME280;3042;43.194;27.646;2023-04-02T00:27:53;100430.78;;;17.02;100.00
6028;BME280;3042;43.194;27.646;2023-04-02T00:30:20;100424.78;;;17.07;100.00
6028;BME280;3042;43.194;27.646;2023-04-02T00:32:47;100421.34;;;17.12;100.00
6028;BME280;3042;43.194;27.646;2023-04-02T00:35:19;100419.69;;;17.20;100.00
6028;BME280;3042;43.194;27.646;2023-04-02T00:37:48;100431.72;;;17.08;100.00
6028;BME280;3042;43.194;27.646;2023-04-02T00:40:19;100411.97;;;17.29;100.00
6028;BME280;3042;43.194;27.646;2023-04-02T00:42:51;100404.56;;;16.93;100.00
6028;BME280;3042;43.194;27.646;2023-04-02T00:45:23;100426.69;;;17.21;100.00
6028;BME280;3042;43.194;27.646;2023-04-02T00:47:56;100425.97;;;17.33;100.00
6028;BME280;3042;43.194;27.646;2023-04-02T00:50:28;100420.59;;;17.22;100.00
6028;BME280;3042;43.194;27.646;2023-04-02T00:52:56;100424.09;;;17.24;100.00
6028;BME280;3042;43.194;27.646;2023-04-02T00:55:31;100410.22;;;17.26;100.00
6028;BME280;3042;43.194;27.646;2023-04-02T00:58:02;100402.75;;;16.87;100.00
6028;BME280;3042;43.194;27.646;2023-04-02T01:00:31;100430.03;;;17.11;100.00
6028;BME280;3042;43.194;27.646;2023-04-02T01:03:28;100221.13;;;15.67;100.00
6028;BME280;3042;43.194;27.646;2023-04-02T01:06:01;100280.88;;;16.11;100.00
6028;BME280;3042;43.194;27.646;2023-04-02T01:08:46;100438.47;;;16.91;100.00
6028;BME280;3042;43.194;27.646;2023-04-02T01:11:27;100392.81;;;16.61;100.00
6028;BME280;3042;43.194;27.646;2023-04-02T01:14:03;100443.66;;;16.88;100.00
6028;BME280;3042;43.194;27.646;2023-04-02T01:16:38;100435.94;;;16.96;100.00
6028;BME280;3042;43.194;27.646;2023-04-02T01:19:28;100430.84;;;17.05;100.00
6028;BME280;3042;43.194;27.646;2023-04-02T01:22:06;100430.06;;;17.14;100.00
6028;BME280;3042;43.194;27.646;2023-04-02T01:24:35;100267.09;;;16.21;100.00
6028;BME280;3042;43.194;27.646;2023-04-02T01:27:04;100430.13;;;17.20;100.00
6028;BME280;3042;43.194;27.646;2023-04-02T01:29:36;100417.22;;;17.32;100.00
6028;BME280;3042;43.194;27.646;2023-04-02T01:32:06;100416.31;;;17.30;100.00
6028;BME280;3042;43.194;27.646;2023-04-02T01:34:35;100410.38;;;17.40;100.00
6028;BME280;3042;43.194;27.646;2023-04-02T01:40:02;100406.09;;;17.48;100.00
6028;BME280;3042;43.194;27.646;2023-04-02T01:42:35;100239.47;;;16.36;100.00
6028;BME280;3042;43.194;27.646;2023-04-02T01:45:08;100328.97;;;17.00;100.00
6028;BME280;3042;43.194;27.646;2023-04-02T01:47:36;100407.88;;;17.52;100.00
6028;BME280;3042;43.194;27.646;2023-04-02T01:50:15;100397.63;;;17.71;100.00
6028;BME280;3042;43.194;27.646;2023-04-02T01:52:49;100388.97;;;17.78;100.00
6028;BME280;3042;43.194;27.646;2023-04-02T01:55:20;100392.53;;;17.82;100.00
6028;BME280;3042;43.194;27.646;2023-04-02T01:57:51;100400.47;;;17.96;100.00
6028;BME280;3042;43.194;27.646;2023-04-02T02:00:21;100400.44;;;17.91;100.00
6028;BME280;3042;43.194;27.646;2023-04-02T02:02:50;100406.63;;;17.99;100.00
6028;BME280;3042;43.194;27.646;2023-04-02T02:05:19;100410.88;;;17.88;100.00
6028;BME280;3042;43.194;27.646;2023-04-02T02:07:49;100304.97;;;17.35;100.00
6028;BME280;3042;43.194;27.646;2023-04-02T02:10:21;100337.63;;;17.83;100.00
6028;BME280;3042;43.194;27.646;2023-04-02T02:12:50;100408.34;;;17.97;100.00
6028;BME280;3042;43.194;27.646;2023-04-02T02:15:19;100419.66;;;17.98;100.00
6028;BME280;3042;43.194;27.646;2023-04-02T02:17:49;100427.19;;;17.65;100.00
6028;BME280;3042;43.194;27.646;2023-04-02T02:20:16;100421.97;;;17.65;100.00
6028;BME280;3042;43.194;27.646;2023-04-02T02:22:45;100418.72;;;17.86;100.00
6028;BME280;3042;43.194;27.646;2023-04-02T02:25:14;100416.94;;;17.85;100.00
6028;BME280;3042;43.194;27.646;2023-04-02T02:27:52;100395.91;;;17.73;100.00
6028;BME280;3042;43.194;27.646;2023-04-02T02:30:24;100415.16;;;17.81;100.00
6028;BME280;3042;43.194;27.646;2023-04-02T02:32:59;100418.53;;;17.72;100.00
6028;BME280;3042;43.194;27.646;2023-04-02T02:35:29;100392.38;;;17.68;100.00
6028;BME280;3042;43.194;27.646;2023-04-02T02:38:09;100409.97;;;17.84;100.00
6028;BME280;3042;43.194;27.646;2023-04-02T02:40:41;100428.91;;;17.65;100.00
6028;BME280;3042;43.194;27.646;2023-04-02T02:43:11;100426.34;;;17.71;100.00
6028;BME280;3042;43.194;27.646;2023-04-02T02:45:40;100303.72;;;16.99;100.00
6028;BME280;3042;43.194;27.646;2023-04-02T02:48:14;100423.03;;;17.83;100.00
6028;BME280;3042;43.194;27.646;2023-04-02T02:50:44;100196.22;;;16.53;100.00
6028;BME280;3042;43.194;27.646;2023-04-02T02:53:16;100417.03;;;17.95;100.00
6028;BME280;3042;43.194;27.646;2023-04-02T02:55:45;100372.31;;;17.65;100.00
6028;BME280;3042;43.194;27.646;2023-04-02T02:58:15;100349.50;;;17.47;100.00
6028;BME280;3042;43.194;27.646;2023-04-02T03:00:44;100418.72;;;17.86;100.00
6028;BME280;3042;43.194;27.646;2023-04-02T03:03:15;100409.94;;;17.83;100.00
6028;BME280;3042;43.194;27.646;2023-04-02T03:05:44;100431.50;;;17.62;100.00
6028;BME280;3042;43.194;27.646;2023-04-02T03:08:21;100223.97;;;16.48;100.00
6028;BME280;3042;43.194;27.646;2023-04-02T03:10:54;100420.16;;;17.63;100.00
6028;BME280;3042;43.194;27.646;2023-04-02T03:13:26;100420.13;;;17.60;100.00
6028;BME280;3042;43.194;27.646;2023-04-02T03:15:58;100421.88;;;17.59;100.00
6028;BME280;3042;43.194;27.646;2023-04-02T03:18:36;100422.72;;;17.57;100.00
6028;BME280;3042;43.194;27.646;2023-04-02T03:21:14;100418.25;;;17.46;100.00
6028;BME280;3042;43.194;27.646;2023-04-02T03:23:44;100353.31;;;16.99;100.00
6028;BME280;3042;43.194;27.646;2023-04-02T03:26:17;100426.13;;;17.49;100.00
6028;BME280;3042;43.194;27.646;2023-04-02T03:28:48;100421.75;;;17.48;100.00
6028;BME280;3042;43.194;27.646;2023-04-02T03:31:21;100425.22;;;17.44;100.00
6028;BME280;3042;43.194;27.646;2023-04-02T03:33:55;100424.25;;;17.39;100.00
6028;BME280;3042;43.194;27.646;2023-04-02T03:36:26;100434.53;;;17.25;100.00
6028;BME280;3042;43.194;27.646;2023-04-02T03:39:00;100425.81;;;17.22;100.00
6028;BME280;3042;43.194;27.646;2023-04-02T03:41:32;100430.94;;;17.16;100.00
6028;BME280;3042;43.194;27.646;2023-04-02T03:44:10;100417.22;;;17.32;100.00
6028;BME280;3042;43.194;27.646;2023-04-02T03:46:44;100419.88;;;17.35;100.00
6028;BME280;3042;43.194;27.646;2023-04-02T03:49:18;100412.19;;;17.50;100.00
6028;BME280;3042;43.194;27.646;2023-04-02T03:51:53;100310.66;;;16.97;100.00
6028;BME280;3042;43.194;27.646;2023-04-02T03:54:21;100415.69;;;17.51;100.00
6028;BME280;3042;43.194;27.646;2023-04-02T03:56:50;100418.34;;;17.56;100.00
6028;BME280;3042;43.194;27.646;2023-04-02T03:59:22;100412.41;;;17.70;100.00
6028;BME280;3042;43.194;27.646;2023-04-02T04:01:54;100342.13;;;17.09;100.00
6028;BME280;3042;43.194;27.646;2023-04-02T04:04:27;100424.41;;;17.53;100.00
6028;BME280;3042;43.194;27.646;2023-04-02T04:06:55;100433.00;;;17.40;100.00
6028;BME280;3042;43.194;27.646;2023-04-02T04:09:26;100428.84;;;17.59;100.00
6028;BME280;3042;43.194;27.646;2023-04-02T04:12:06;100423.63;;;17.59;100.00
6028;BME280;3042;43.194;27.646;2023-04-02T04:14:36;100423.56;;;17.52;100.00
6028;BME280;3042;43.194;27.646;2023-04-02T04:17:10;100414.38;;;17.90;100.00
6028;BME280;3042;43.194;27.646;2023-04-02T04:19:44;100408.34;;;17.97;100.00
6028;BME280;3042;43.194;27.646;2023-04-02T04:22:15;100405.00;;;18.15;100.00
6028;BME280;3042;43.194;27.646;2023-04-02T04:24:44;100418.03;;;18.10;100.00
6028;BME280;3042;43.194;27.646;2023-04-02T04:27:17;100412.03;;;18.19;100.00
6028;BME280;3042;43.194;27.646;2023-04-02T04:29:52;100418.13;;;18.23;100.00
6028;BME280;3042;43.194;27.646;2023-04-02T04:32:27;100343.53;;;17.61;100.00
6028;BME280;3042;43.194;27.646;2023-04-02T04:35:03;100401.25;;;17.82;100.00
6028;BME280;3042;43.194;27.646;2023-04-02T04:37:35;100421.44;;;18.02;100.00
6028;BME280;3042;43.194;27.646;2023-04-02T04:40:10;100339.75;;;17.31;100.00
6028;BME280;3042;43.194;27.646;2023-04-02T04:42:42;100449.19;;;17.87;100.00
6028;BME280;3042;43.194;27.646;2023-04-02T04:45:15;100449.22;;;17.89;100.00
6028;BME280;3042;43.194;27.646;2023-04-02T04:47:53;100446.69;;;18.00;100.00
6028;BME280;3042;43.194;27.646;2023-04-02T04:50:28;100451.97;;;18.03;100.00
6028;BME280;3042;43.194;27.646;2023-04-02T04:52:56;100445.06;;;18.11;100.00
6028;BME280;3042;43.194;27.646;2023-04-02T04:55:36;100335.91;;;17.84;100.00
6028;BME280;3042;43.194;27.646;2023-04-02T04:58:10;100400.00;;;18.49;100.00
6028;BME280;3042;43.194;27.646;2023-04-02T05:00:50;100440.47;;;18.97;100.00
6028;BME280;3042;43.194;27.646;2023-04-02T05:03:27;100443.09;;;19.00;100.00
6028;BME280;3042;43.194;27.646;2023-04-02T05:06:04;100414.34;;;19.22;100.00
6028;BME280;3042;43.194;27.646;2023-04-02T05:08:35;100437.16;;;19.44;100.00
6028;BME280;3042;43.194;27.646;2023-04-02T05:11:08;100452.75;;;19.19;100.00
6028;BME280;3042;43.194;27.646;2023-04-02T05:13:41;100419.28;;;18.65;100.00
6028;BME280;3042;43.194;27.646;2023-04-02T05:16:14;100457.94;;;19.04;100.00
6028;BME280;3042;43.194;27.646;2023-04-02T05:18:47;100474.56;;;19.09;100.00
6028;BME280;3042;43.194;27.646;2023-04-02T05:21:22;100464.88;;;18.93;100.00
6028;BME280;3042;43.194;27.646;2023-04-02T05:23:55;100456.13;;;18.94;100.00
6028;BME280;3042;43.194;27.646;2023-04-02T05:26:28;100457.91;;;18.95;100.00
6028;BME280;3042;43.194;27.646;2023-04-02T05:28:58;100466.69;;;19.06;100.00
6028;BME280;3042;43.194;27.646;2023-04-02T05:31:35;100477.78;;;18.70;100.00
6028;BME280;3042;43.194;27.646;2023-04-02T05:34:03;100482.06;;;18.59;100.00
6028;BME280;3042;43.194;27.646;2023-04-02T05:36:32;100493.38;;;18.56;100.00
6028;BME280;3042;43.194;27.646;2023-04-02T05:38:59;100428.72;;;18.38;100.00
6028;BME280;3042;43.194;27.646;2023-04-02T05:41:28;100479.63;;;18.82;100.00
6028;BME280;3042;43.194;27.646;2023-04-02T05:44:05;100484.84;;;18.79;100.00
6028;BME280;3042;43.194;27.646;2023-04-02T05:46:35;100481.38;;;18.84;100.00
6028;BME280;3042;43.194;27.646;2023-04-02T05:49:05;100504.84;;;18.73;100.00
6028;BME280;3042;43.194;27.646;2023-04-02T05:51:40;100502.28;;;18.76;100.00
6028;BME280;3042;43.194;27.646;2023-04-02T05:54:16;100507.44;;;18.69;100.00
6028;BME280;3042;43.194;27.646;2023-04-02T05:56:50;100506.81;;;19.02;100.00
6028;BME280;3042;43.194;27.646;2023-04-02T05:59:21;100508.50;;;18.91;100.00
6028;BME280;3042;43.194;27.646;2023-04-02T06:01:55;100504.25;;;19.08;100.00
6028;BME280;3042;43.194;27.646;2023-04-02T06:04:30;100303.81;;;18.02;100.00
6028;BME280;3042;43.194;27.646;2023-04-02T06:07:04;100493.88;;;19.33;100.00
6028;BME280;3042;43.194;27.646;2023-04-02T06:09:40;100496.56;;;19.51;100.00
6028;BME280;3042;43.194;27.646;2023-04-02T06:12:27;100463.25;;;19.16;100.00
6028;BME280;3042;43.194;27.646;2023-04-02T06:14:56;100511.38;;;19.37;100.00
6028;BME280;3042;43.194;27.646;2023-04-02T06:17:23;100515.69;;;19.26;100.00
6028;BME280;3042;43.194;27.646;2023-04-02T06:19:53;100484.31;;;19.41;100.00
6028;BME280;3042;43.194;27.646;2023-04-02T06:22:31;100498.38;;;19.65;100.00
6028;BME280;3042;43.194;27.646;2023-04-02T06:25:03;100478.41;;;20.17;100.00
6028;BME280;3042;43.194;27.646;2023-04-02T06:27:32;100482.78;;;20.40;100.00
6028;BME280;3042;43.194;27.646;2023-04-02T06:30:02;100374.25;;;20.55;100.00
6028;BME280;3042;43.194;27.646;2023-04-02T06:32:31;100447.31;;;21.85;100.00
6028;BME280;3042;43.194;27.646;2023-04-02T06:34:58;100443.56;;;22.16;100.00
6028;BME280;3042;43.194;27.646;2023-04-02T06:37:30;100459.53;;;21.94;100.00
6028;BME280;3042;43.194;27.646;2023-04-02T06:39:58;100468.47;;;21.68;100.00
6028;BME280;3042;43.194;27.646;2023-04-02T06:42:27;100502.00;;;21.05;100.00
6028;BME280;3042;43.194;27.646;2023-04-02T06:44:56;100521.28;;;20.73;100.00
6028;BME280;3042;43.194;27.646;2023-04-02T06:47:29;100383.06;;;19.92;100.00
6028;BME280;3042;43.194;27.646;2023-04-02T06:50:04;100525.69;;;20.65;100.00
6028;BME280;3042;43.194;27.646;2023-04-02T06:52:35;100528.31;;;20.59;100.00
6028;BME280;3042;43.194;27.646;2023-04-02T06:55:24;100426.81;;;19.90;100.00
6028;BME280;3042;43.194;27.646;2023-04-02T06:57:53;100433.81;;;20.23;100.00
6028;BME280;3042;43.194;27.646;2023-04-02T07:00:25;100504.59;;;21.02;100.00
6028;BME280;3042;43.194;27.646;2023-04-02T07:02:54;100490.50;;;21.43;100.00
6028;BME280;3042;43.194;27.646;2023-04-02T07:05:21;100485.19;;;21.55;100.00
6028;BME280;3042;43.194;27.646;2023-04-02T07:07:51;100477.16;;;21.80;100.00
6028;BME280;3042;43.194;27.646;2023-04-02T07:10:20;100496.59;;;21.39;100.00
6028;BME280;3042;43.194;27.646;2023-04-02T07:13:04;100283.38;;;20.11;100.00
6028;BME280;3042;43.194;27.646;2023-04-02T07:16:49;100297.31;;;20.34;100.00
6028;BME280;3042;43.194;27.646;2023-04-02T07:22:37;100494.88;;;21.41;100.00
6028;BME280;3042;43.194;27.646;2023-04-02T07:25:06;100503.63;;;21.37;100.00
6028;BME280;3042;43.194;27.646;2023-04-02T07:27:33;100509.78;;;21.25;100.00
6028;BME280;3042;43.194;27.646;2023-04-02T07:30:00;100526.47;;;21.07;100.00
6028;BME280;3042;43.194;27.646;2023-04-02T07:32:28;100542.28;;;20.96;100.00
6028;BME280;3042;43.194;27.646;2023-04-02T07:34:55;100526.44;;;21.22;100.00
6028;BME280;3042;43.194;27.646;2023-04-02T07:37:22;100526.50;;;20.95;100.00
6028;BME280;3042;43.194;27.646;2023-04-02T07:39:49;100524.66;;;21.37;100.00
6028;BME280;3042;43.194;27.646;2023-04-02T07:42:18;100525.53;;;21.36;100.00
6028;BME280;3042;43.194;27.646;2023-04-02T07:44:45;100522.91;;;21.39;100.00
6028;BME280;3042;43.194;27.646;2023-04-02T07:47:12;100386.56;;;20.28;100.00
6028;BME280;3042;43.194;27.646;2023-04-02T07:49:42;100552.75;;;21.16;100.00
6028;BME280;3042;43.194;27.646;2023-04-02T07:52:10;100542.19;;;21.35;100.00
6028;BME280;3042;43.194;27.646;2023-04-02T07:54:37;100467.03;;;20.54;100.00
6028;BME280;3042;43.194;27.646;2023-04-02T07:57:04;100552.72;;;21.28;100.00
6028;BME280;3042;43.194;27.646;2023-04-02T07:59:33;100552.75;;;21.16;100.00
6028;BME280;3042;43.194;27.646;2023-04-02T08:02:00;100546.56;;;21.33;100.00
6028;BME280;3042;43.194;27.646;2023-04-02T08:04:27;100554.47;;;21.29;100.00
6028;BME280;3042;43.194;27.646;2023-04-02T08:06:54;100549.22;;;21.26;100.00
6028;BME280;3042;43.194;27.646;2023-04-02T08:09:21;100528.09;;;21.62;100.00
6028;BME280;3042;43.194;27.646;2023-04-02T08:11:50;100538.63;;;21.63;100.00
6028;BME280;3042;43.194;27.646;2023-04-02T08:14:17;100550.97;;;21.34;100.00
6028;BME280;3042;43.194;27.646;2023-04-02T08:16:49;100544.75;;;21.59;100.00
6028;BME280;3042;43.194;27.646;2023-04-02T08:19:17;100497.59;;;20.99;100.00
6028;BME280;3042;43.194;27.646;2023-04-02T08:21:44;100554.44;;;21.42;100.00
6028;BME280;3042;43.194;27.646;2023-04-02T08:24:15;100465.25;;;20.90;100.00
6028;BME280;3042;43.194;27.646;2023-04-02T08:26:43;100545.78;;;21.03;100.00
6028;BME280;3042;43.194;27.646;2023-04-02T08:29:11;100466.13;;;20.92;100.00
6028;BME280;3042;43.194;27.646;2023-04-02T08:31:39;100550.09;;;21.42;100.00
6028;BME280;3042;43.194;27.646;2023-04-02T08:34:07;100555.28;;;21.59;100.00
6028;BME280;3042;43.194;27.646;2023-04-02T08:36:35;100550.94;;;21.46;100.00
6028;BME280;3042;43.194;27.646;2023-04-02T08:39:04;100565.88;;;21.41;100.00
6028;BME280;3042;43.194;27.646;2023-04-02T08:41:37;100511.63;;;21.07;100.00
6028;BME280;3042;43.194;27.646;2023-04-02T08:44:12;100559.59;;;21.73;100.00
6028;BME280;3042;43.194;27.646;2023-04-02T08:46:45;100551.69;;;21.79;100.00
6028;BME280;3042;43.194;27.646;2023-04-02T08:49:18;100575.44;;;21.60;100.00
6028;BME280;3042;43.194;27.646;2023-04-02T08:51:47;100575.47;;;21.54;100.00
6028;BME280;3042;43.194;27.646;2023-04-02T08:54:19;100517.66;;;21.36;100.00
6028;BME280;3042;43.194;27.646;2023-04-02T08:56:51;100576.25;;;21.76;100.00
6028;BME280;3042;43.194;27.646;2023-04-02T08:59:30;100461.78;;;20.75;100.00
6028;BME280;3042;43.194;27.646;2023-04-02T09:02:03;100585.09;;;21.57;100.00
6028;BME280;3042;43.194;27.646;2023-04-02T09:04:33;100564.09;;;21.46;100.00
6028;BME280;3042;43.194;27.646;2023-04-02T09:07:01;100591.25;;;21.39;100.00
6028;BME280;3042;43.194;27.646;2023-04-02T09:09:33;100549.78;;;22.08;100.00
6028;BME280;3042;43.194;27.646;2023-04-02T09:12:03;100555.78;;;22.30;100.00
6028;BME280;3042;43.194;27.646;2023-04-02T09:14:38;100491.31;;;21.54;100.00
6028;BME280;3042;43.194;27.646;2023-04-02T09:17:16;100557.63;;;22.21;100.00
6028;BME280;3042;43.194;27.646;2023-04-02T09:19:51;100549.72;;;22.22;100.00
6028;BME280;3042;43.194;27.646;2023-04-02T09:22:20;100489.38;;;21.91;100.00
6028;BME280;3042;43.194;27.646;2023-04-02T09:24:52;100554.97;;;22.24;100.00
6028;BME280;3042;43.194;27.646;2023-04-02T09:27:22;100568.13;;;22.14;100.00
6028;BME280;3042;43.194;27.646;2023-04-02T09:29:52;100555.72;;;22.41;100.00
6028;BME280;3042;43.194;27.646;2023-04-02T09:32:26;100534.56;;;22.53;98.94
6028;BME280;3042;43.194;27.646;2023-04-02T09:35:10;100554.88;;;22.41;98.06
6028;BME280;3042;43.194;27.646;2023-04-02T09:37:38;100552.25;;;22.33;98.27
6028;BME280;3042;43.194;27.646;2023-04-02T09:40:16;100537.75;;;22.89;98.87
6028;BME280;3042;43.194;27.646;2023-04-02T09:42:44;100526.25;;;22.96;100.00
6028;BME280;3042;43.194;27.646;2023-04-02T09:45:14;100527.66;;;23.31;100.00
6028;BME280;3042;43.194;27.646;2023-04-02T09:47:41;100519.34;;;23.65;98.49
6028;BME280;3042;43.194;27.646;2023-04-02T09:50:30;100520.81;;;23.88;96.89
6028;BME280;3042;43.194;27.646;2023-04-02T09:52:58;100520.88;;;23.85;97.03
6028;BME280;3042;43.194;27.646;2023-04-02T09:55:26;100403.91;;;23.19;96.32
6028;BME280;3042;43.194;27.646;2023-04-02T09:58:12;100521.41;;;24.10;95.24
6028;BME280;3042;43.194;27.646;2023-04-02T10:00:49;100522.19;;;24.16;94.66
6028;BME280;3042;43.194;27.646;2023-04-02T10:03:23;100535.78;;;23.87;92.39
6028;BME280;3042;43.194;27.646;2023-04-02T10:06:07;100503.75;;;23.47;93.37
6028;BME280;3042;43.194;27.646;2023-04-02T10:08:35;100580.50;;;23.22;95.21
6028;BME280;3042;43.194;27.646;2023-04-02T10:11:06;100560.75;;;23.58;96.86
6028;BME280;3042;43.194;27.646;2023-04-02T10:13:50;100558.06;;;23.63;94.38
6028;BME280;3042;43.194;27.646;2023-04-02T10:16:23;100571.31;;;23.60;95.09
6028;BME280;3042;43.194;27.646;2023-04-02T10:18:56;100565.94;;;23.66;93.24
6028;BME280;3042;43.194;27.646;2023-04-02T10:21:26;100574.88;;;23.56;93.25
6028;BME280;3042;43.194;27.646;2023-04-02T10:23:56;100575.63;;;23.67;91.48
6028;BME280;3042;43.194;27.646;2023-04-02T10:26:54;100584.41;;;23.66;87.66
6028;BME280;3042;43.194;27.646;2023-04-02T10:29:48;100589.84;;;23.54;86.54
6028;BME280;3042;43.194;27.646;2023-04-02T10:32:20;100498.94;;;23.08;86.93
6028;BME280;3042;43.194;27.646;2023-04-02T10:34:55;100594.19;;;23.58;85.06
6028;BME280;3042;43.194;27.646;2023-04-02T10:40:25;100577.09;;;23.90;86.30
6028;BME280;3042;43.194;27.646;2023-04-02T10:43:01;100595.09;;;23.54;86.32
6028;BME280;3042;43.194;27.646;2023-04-02T10:45:36;100551.13;;;23.53;85.26
6028;BME280;3042;43.194;27.646;2023-04-02T10:48:09;100521.94;;;22.92;86.73
6028;BME280;3042;43.194;27.646;2023-04-02T10:50:44;100588.44;;;23.19;90.54
6028;BME280;3042;43.194;27.646;2023-04-02T10:53:18;100606.63;;;23.45;88.73
6028;BME280;3042;43.194;27.646;2023-04-02T10:55:49;100617.25;;;23.39;89.91
6028;BME280;3042;43.194;27.646;2023-04-02T10:58:22;100619.88;;;23.41;90.51
6028;BME280;3042;43.194;27.646;2023-04-02T11:00:54;100562.84;;;23.30;90.47
6028;BME280;3042;43.194;27.646;2023-04-02T11:03:29;100450.72;;;23.00;90.43
6028;BME280;3042;43.194;27.646;2023-04-02T11:05:59;100591.19;;;23.89;88.29
6028;BME280;3042;43.194;27.646;2023-04-02T11:08:38;100579.59;;;24.00;87.17
6028;BME280;3042;43.194;27.646;2023-04-02T11:11:09;100571.38;;;24.23;85.61
6028;BME280;3042;43.194;27.646;2023-04-02T11:13:49;100585.69;;;24.07;84.36
6028;BME280;3042;43.194;27.646;2023-04-02T11:16:18;100584.16;;;23.88;83.06
6028;BME280;3042;43.194;27.646;2023-04-02T11:19:19;100550.41;;;24.11;83.20
6028;BME280;3042;43.194;27.646;2023-04-02T11:21:48;100553.91;;;24.13;82.24
6028;BME280;3042;43.194;27.646;2023-04-02T11:24:42;100568.53;;;24.37;82.93
6028;BME280;3042;43.194;27.646;2023-04-02T11:27:21;100578.56;;;24.12;84.01
6028;BME280;3042;43.194;27.646;2023-04-02T11:29:51;100572.13;;;24.30;82.68
6028;BME280;3042;43.194;27.646;2023-04-02T11:32:44;100587.75;;;23.84;83.02
6028;BME280;3042;43.194;27.646;2023-04-02T11:35:26;100540.47;;;23.62;82.38
6028;BME280;3042;43.194;27.646;2023-04-02T11:38:02;100584.75;;;24.10;83.53
6028;BME280;3042;43.194;27.646;2023-04-02T11:40:51;100584.09;;;23.94;81.11
6028;BME280;3042;43.194;27.646;2023-04-02T11:43:47;100594.59;;;23.97;81.22
6028;BME280;3042;43.194;27.646;2023-04-02T11:46:37;100591.81;;;24.09;80.43
6028;BME280;3042;43.194;27.646;2023-04-02T11:49:32;100438.81;;;23.36;80.32
6028;BME280;3042;43.194;27.646;2023-04-02T11:51:59;100558.56;;;24.56;81.15
6028;BME280;3042;43.194;27.646;2023-04-02T11:54:28;100526.03;;;24.53;83.49
6028;BME280;3042;43.194;27.646;2023-04-02T11:57:06;100549.50;;;24.70;81.17
6028;BME280;3042;43.194;27.646;2023-04-02T11:59:43;100497.44;;;24.20;80.62
6028;BME280;3042;43.194;27.646;2023-04-02T12:02:19;100389.25;;;23.63;81.65
6028;BME280;3042;43.194;27.646;2023-04-02T12:05:08;100550.66;;;25.04;83.50
6028;BME280;3042;43.194;27.646;2023-04-02T12:07:59;100546.31;;;25.00;83.51
6028;BME280;3042;43.194;27.646;2023-04-02T12:10:33;100548.84;;;25.08;83.39
6028;BME280;3042;43.194;27.646;2023-04-02T12:13:18;100472.22;;;24.58;82.10
6028;BME280;3042;43.194;27.646;2023-04-02T12:15:48;100566.84;;;24.86;81.18
6028;BME280;3042;43.194;27.646;2023-04-02T12:18:20;100570.50;;;24.79;81.18
6028;BME280;3042;43.194;27.646;2023-04-02T12:20:49;100575.09;;;24.68;80.73
6028;BME280;3042;43.194;27.646;2023-04-02T12:23:21;100530.50;;;24.49;81.74
6028;BME280;3042;43.194;27.646;2023-04-02T12:25:55;100557.72;;;25.05;81.70
6028;BME280;3042;43.194;27.646;2023-04-02T12:28:25;100554.25;;;25.00;80.55
6028;BME280;3042;43.194;27.646;2023-04-02T12:31:03;100517.88;;;24.67;81.44
6028;BME280;3042;43.194;27.646;2023-04-02T12:33:33;100571.72;;;24.58;78.13
6028;BME280;3042;43.194;27.646;2023-04-02T12:36:03;100534.47;;;24.17;80.44
6028;BME280;3042;43.194;27.646;2023-04-02T12:38:33;100570.63;;;24.73;80.39
6028;BME280;3042;43.194;27.646;2023-04-02T12:41:02;100402.63;;;23.48;78.99
6028;BME280;3042;43.194;27.646;2023-04-02T12:43:32;100594.34;;;24.15;78.70
6028;BME280;3042;43.194;27.646;2023-04-02T12:46:01;100603.06;;;24.20;79.65
6028;BME280;3042;43.194;27.646;2023-04-02T12:48:30;100581.59;;;24.45;79.50
6028;BME280;3042;43.194;27.646;2023-04-02T12:50:57;100572.72;;;24.52;79.03
6028;BME280;3042;43.194;27.646;2023-04-02T12:53:29;100531.03;;;24.12;79.74
6028;BME280;3042;43.194;27.646;2023-04-02T12:56:04;100534.56;;;24.69;80.76
6028;BME280;3042;43.194;27.646;2023-04-02T12:58:36;100557.66;;;25.09;81.42
6028;BME280;3042;43.194;27.646;2023-04-02T13:01:12;100553.31;;;25.04;82.14
6028;BME280;3042;43.194;27.646;2023-04-02T13:03:39;100555.09;;;25.04;83.29
6028;BME280;3042;43.194;27.646;2023-04-02T13:06:23;100477.72;;;24.43;81.80
6028;BME280;3042;43.194;27.646;2023-04-02T13:08:52;100550.41;;;25.17;82.21
6028;BME280;3042;43.194;27.646;2023-04-02T13:11:19;100583.16;;;24.60;81.91
6028;BME280;3042;43.194;27.646;2023-04-02T13:13:48;100544.97;;;24.78;81.27
6028;BME280;3042;43.194;27.646;2023-04-02T13:16:26;100567.75;;;24.87;81.04
6028;BME280;3042;43.194;27.646;2023-04-02T13:19:09;100562.94;;;24.57;80.24
6028;BME280;3042;43.194;27.646;2023-04-02T13:21:36;100574.44;;;24.53;81.12
6028;BME280;3042;43.194;27.646;2023-04-02T13:24:03;100562.88;;;24.62;80.30
6028;BME280;3042;43.194;27.646;2023-04-02T13:26:30;100560.16;;;24.67;80.07
6028;BME280;3042;43.194;27.646;2023-04-02T13:29:09;100567.22;;;24.64;80.69
6028;BME280;3042;43.194;27.646;2023-04-02T13:31:41;100554.44;;;24.91;79.58
6028;BME280;3042;43.194;27.646;2023-04-02T13:34:09;100518.81;;;24.62;80.54